ADDS METAR Data INFO
IDs: Format: Raw Decoded Include TAF

Data at: 1559 UTC 12 Dec 2017

KVDF 121555Z AUTO 22007KT 10SM SCT046 SCT050 21/12 A3005 RMK AO2
KVDF 121535Z AUTO 22008KT 10SM CLR 20/12 A3005 RMK AO2
KVDF 121515Z AUTO 22005KT 10SM CLR 18/12 A3006 RMK AO2
KVDF 121435Z AUTO 21006KT 10SM CLR 16/11 A3007 RMK AO2
KVDF 121415Z AUTO 21006KT 10SM SCT045 15/11 A3008 RMK AO2
KVDF 121355Z AUTO 21006KT 10SM SCT047 13/11 A3008 RMK AO2
KVDF 121335Z AUTO 20004KT 10SM CLR 11/10 A3008 RMK AO2
KVDF 121315Z AUTO 00000KT 10SM SCT044 09/09 A3008 RMK AO2
KVDF 121255Z AUTO 00000KT 10SM SCT044 06/06 A3008 RMK AO2
KVDF 121235Z AUTO 00000KT 7SM SCT043 05/04 A3008 RMK AO2
KVDF 121215Z AUTO 00000KT 5SM BR SCT043 05/04 A3008 RMK AO2
KVDF 121155Z AUTO 00000KT 7SM SCT043 05/04 A3008 RMK AO2
KVDF 121135Z AUTO 00000KT 7SM CLR 04/03 A3007 RMK AO2
KVDF 121115Z AUTO 00000KT 7SM CLR 04/03 A3007 RMK AO2
KVDF 121055Z AUTO 00000KT 5SM BR CLR 04/03 A3007 RMK AO2
KVDF 121035Z AUTO 00000KT 7SM CLR 03/03 A3007 RMK AO2
KVDF 121015Z AUTO 00000KT 7SM CLR 03/03 A3008 RMK AO2
KVDF 120955Z AUTO 00000KT 7SM CLR 03/03 A3009 RMK AO2
KVDF 120935Z AUTO 00000KT 5SM BR CLR 03/03 A3009 RMK AO2
KVDF 120915Z AUTO 00000KT 7SM CLR 03/02 A3009 RMK AO2
KVDF 120855Z AUTO 00000KT 7SM CLR 03/03 A3010 RMK AO2
KVDF 120835Z AUTO 00000KT 7SM CLR 03/02 A3010 RMK AO2
KVDF 120815Z AUTO 00000KT 7SM CLR 03/02 A3010 RMK AO2
KVDF 120755Z AUTO 00000KT 7SM CLR 03/02 A3011 RMK AO2
KVDF 120735Z AUTO 00000KT 7SM CLR 03/02 A3012 RMK AO2
KVDF 120715Z AUTO 00000KT 7SM CLR 03/02 A3011 RMK AO2
KVDF 120655Z AUTO 00000KT 7SM CLR 03/03 A3012 RMK AO2
KVDF 120635Z AUTO 00000KT 7SM CLR 02/02 A3012 RMK AO2
KVDF 120615Z AUTO 00000KT 7SM CLR 03/02 A3013 RMK AO2
KVDF 120555Z AUTO 00000KT 7SM CLR 02/02 A3014 RMK AO2
KVDF 120535Z AUTO 00000KT 7SM CLR 02/02 A3015 RMK AO2
KVDF 120515Z AUTO 00000KT 7SM CLR 03/02 A3016 RMK AO2
KVDF 120455Z AUTO 00000KT 7SM CLR 03/02 A3016 RMK AO2
KVDF 120435Z AUTO 00000KT 7SM CLR 03/02 A3017 RMK AO2
KVDF 120415Z AUTO 00000KT 10SM CLR 03/02 A3017 RMK AO2
KVDF 120355Z AUTO 00000KT 10SM CLR 03/03 A3018 RMK AO2
KVDF 120335Z AUTO 00000KT 10SM CLR 03/02 A3019 RMK AO2
KVDF 120315Z AUTO 00000KT 10SM CLR 03/03 A3019 RMK AO2
KVDF 120255Z AUTO 00000KT 10SM CLR 03/03 A3020 RMK AO2
KVDF 120235Z AUTO 00000KT 10SM CLR 03/02 A3020 RMK AO2
KVDF 120215Z AUTO 00000KT 10SM CLR 03/02 A3020 RMK AO2
KVDF 120155Z AUTO 00000KT 10SM CLR 04/03 A3021 RMK AO2
KVDF 120135Z AUTO 00000KT 10SM CLR 04/03 A3021 RMK AO2
KVDF 120115Z AUTO 00000KT 10SM CLR 05/03 A3021 RMK AO2
KVDF 120055Z AUTO 00000KT 10SM CLR 05/03 A3021 RMK AO2
KVDF 120035Z AUTO 00000KT 10SM CLR 06/03 A3021 RMK AO2
KVDF 120015Z AUTO 00000KT 10SM CLR 06/03 A3020 RMK AO2
KVDF 112355Z AUTO 00000KT 10SM CLR 06/03 A3020 RMK AO2
KVDF 112335Z AUTO 00000KT 10SM CLR 07/03 A3020 RMK AO2
KVDF 112315Z AUTO 00000KT 10SM CLR 08/01 A3020 RMK AO2
KVDF 112255Z AUTO 00000KT 10SM CLR 10/00 A3020 RMK AO2
KVDF 112235Z AUTO 32004KT 10SM CLR 13/00 A3020 RMK AO2
KVDF 112215Z AUTO 31004KT 10SM CLR 15/01 A3019 RMK AO2
KVDF 112155Z AUTO 31004KT 10SM CLR 16/00 A3019 RMK AO2
KVDF 112135Z AUTO 31005KT 10SM CLR 16/00 A3019 RMK AO2
KVDF 112115Z AUTO 10SM CLR 17/01 A3019 RMK AO2
KVDF 112055Z AUTO 31006KT 10SM CLR 18/01 A3019 RMK AO2
KVDF 112035Z AUTO 00000KT 10SM CLR 18/00 A3019 RMK AO2
KVDF 112015Z AUTO 28003KT 10SM CLR 18/00 A3019 RMK AO2
KVDF 111955Z AUTO 00000KT 10SM CLR 18/M01 A3020 RMK AO2
KVDF 111935Z AUTO 00000KT 10SM CLR 17/M01 A3020 RMK AO2
KVDF 111915Z AUTO 00000KT 10SM CLR 17/00 A3021 RMK AO2
KVDF 111855Z AUTO 01003KT 10SM CLR 18/00 A3021 RMK AO2
KVDF 111835Z AUTO 00000KT 10SM CLR 17/M01 A3022 RMK AO2
KVDF 111815Z AUTO 00000KT 10SM CLR 17/00 A3023 RMK AO2
KVDF 111755Z AUTO 00000KT 10SM CLR 16/00 A3024 RMK AO2
KVDF 111735Z AUTO 31004KT 10SM CLR 16/00 A3025 RMK AO2
KVDF 111715Z AUTO 00000KT 10SM CLR 16/00 A3026 RMK AO2
KVDF 111655Z AUTO 35003KT 10SM CLR 16/00 A3028 RMK AO2
KVDF 111635Z AUTO 34007KT 10SM CLR 15/01 A3029 RMK AO2
KVDF 111615Z AUTO 35007KT 10SM CLR 15/01 A3030 RMK AO2
KVDF 111555Z AUTO 35005KT 10SM CLR 15/01 A3031 RMK AO2
KVDF 111535Z AUTO 02005KT 10SM CLR 13/02 A3032 RMK AO2
KVDF 111515Z AUTO 36003KT 10SM CLR 12/02 A3031 RMK AO2
KVDF 111455Z AUTO 02003KT 10SM CLR 11/02 A3032 RMK AO2
KVDF 111435Z AUTO 02003KT 10SM CLR 10/02 A3033 RMK AO2
KVDF 111415Z AUTO 00000KT 10SM CLR 08/03 A3033 RMK AO2
KVDF 111355Z AUTO 00000KT 10SM CLR 07/05 A3033 RMK AO2
KVDF 111335Z AUTO 00000KT 10SM CLR 05/04 A3033 RMK AO2
KVDF 111315Z AUTO 00000KT 10SM CLR 03/03 A3033 RMK AO2
KVDF 111255Z AUTO 00000KT 10SM CLR 02/02 A3033 RMK AO2
KVDF 111235Z AUTO 00000KT 7SM CLR 01/00 A3032 RMK AO2
KVDF 111215Z AUTO 00000KT 7SM CLR 01/00 A3032 RMK AO2
KVDF 111155Z AUTO 00000KT 5SM BR CLR 01/00 A3031 RMK AO2
KVDF 111135Z AUTO 00000KT 7SM CLR 01/00 A3031 RMK AO2
KVDF 111115Z AUTO 00000KT 7SM CLR 01/00 A3031 RMK AO2
KVDF 111055Z AUTO 00000KT 4SM BR CLR 00/00 A3030 RMK AO2
KVDF 111035Z AUTO 00000KT 7SM CLR 01/00 A3030 RMK AO2
KVDF 111015Z AUTO 00000KT 7SM CLR 00/00 A3030 RMK AO2
KVDF 110955Z AUTO 00000KT 5SM BR CLR 00/00 A3030 RMK AO2
KVDF 110935Z AUTO 00000KT 5SM BR CLR 01/00 A3031 RMK AO2
KVDF 110915Z AUTO 00000KT 7SM CLR 01/00 A3030 RMK AO2
KVDF 110855Z AUTO 00000KT 7SM SCT002 01/00 A3031 RMK AO2
KVDF 110835Z AUTO 00000KT 5SM BR BKN002 01/00 A3031 RMK AO2
KVDF 110815Z AUTO 00000KT 5SM BR SCT002 01/00 A3031 RMK AO2
KVDF 110755Z AUTO 00000KT 5SM BR CLR 01/00 A3030 RMK AO2
KVDF 110735Z AUTO 00000KT 5SM BR CLR 01/00 A3030 RMK AO2
KVDF 110715Z AUTO 00000KT 7SM CLR 01/00 A3031 RMK AO2
KVDF 110655Z AUTO 00000KT 10SM CLR 01/00 A3031 RMK AO2
KVDF 110635Z AUTO 00000KT 7SM CLR 01/01 A3031 RMK AO2
KVDF 110615Z AUTO 00000KT 7SM CLR 01/00 A3032 RMK AO2
KVDF 110555Z AUTO 00000KT 7SM CLR 01/01 A3031 RMK AO2
KVDF 110535Z AUTO 00000KT 7SM CLR 01/01 A3032 RMK AO2
KVDF 110515Z AUTO 00000KT 7SM CLR 01/01 A3032 RMK AO2
KVDF 110455Z AUTO 00000KT 7SM CLR 01/01 A3033 RMK AO2
KVDF 110435Z AUTO 00000KT 10SM CLR 01/01 A3033 RMK AO2
KVDF 110415Z AUTO 00000KT 10SM CLR 01/01 A3033 RMK AO2